Warning: Javascript must be enabled to use all the features on this page!


Page Loading - Please Wait...

Click to hideNews Bulletins

Peak Streamflow for the Nation

USGS 03421000 COLLINS RIVER NEAR MCMINNVILLE, TN

Warren County, Tennessee
Hydrologic Unit Code 05130107
Latitude  35°42'29.57", Longitude  85°43'54.67" NAD27
Drainage area 640  square miles
Gage datum 825.78 feet above NGVD29
Output formats
Table
Graph
Tab-separated file
peakfq (watstore) format
Reselect output format
Water
Year
Date Gage
Height
(feet)
Stream-
flow
(cfs)
1926 1926-06-23 14.60 14,100
1927 1926-12-26 24.37 31,300
1928 1928-06-29 32.40 50,100
1929 1929-03-23 39.10 75,300
1930 1929-11-15 14.00 13,000
1931 1931-03-28 8.52 5,530
1932 1932-04-25 18.62 18,200
1933 1933-02-15 19.63 19,600
1934 1934-03-25 23.45 25,900
1935 1935-04-06 23.40 25,900
1936 1936-04-06 19.07 18,900
1937 1937-01-02 26.86 33,700
1938 1938-04-09 11.97 9,000
1939 1939-02-04 26.03 31,500
1940 1940-03-30 13.30 10,700
1941 1941-04-05 15.12 12,500
1942 1942-03-17 15.17 12,600
1943 1942-12-29 25.20 29,700
1944 1944-03-29 22.90 24,800
1945 1945-02-18 22.15 23,600
1946 1946-01-08 24.54 28,100
1947 1947-01-02 15.44 12,900
1948 1948-02-13 35.09 59,400
1949 1949-01-05 31.42 46,500
1950 1950-01-31 24.23 26,400
1951 1951-02-01 27.29 33,200
1952 1951-12-08 19.38 18,500
1953 1953-02-12 19.75 19,000
1954 1954-01-22 24.68 27,300
1955 1955-03-22 31.72 47,500
1956 1956-02-04 21.17 21,200
1957 1957-02-01 26.93 32,200
1958 1957-11-19 27.20 33,000
1959 1959-01-22 14.49 11,700
1960 1959-12-19 21.50 21,700
1961 1961-03-08 28.15 35,700
1962 1962-04-11 24.75 26,300
1963 1963-03-12 30.53 43,400
1964 1964-03-15 20.85 19,500
1965 1965-03-26 23.03 23,100
1966 1966-05-02 15.91 12,900
1967 1967-03-07 20.41 18,900
1968 1968-03-12 19.61 17,700
1969 1969-02-03 20.14 18,500
1970 1969-12-30 33.28 53,000
1971 1971-05-13 21.18 20,100
1972 1972-01-02 16.13 13,200
1973 1973-03-16 36.30 64,100
1974 1974-01-11 30.66 40,500
1975 1975-03-14 31.24 42,200
1976 1975-10-18 24.26 26,400
1977 1977-04-05 32.01 45,800
1978 1977-11-30 17.82 15,800
1979 1979-03-04 17.67 15,600
1980 1980-03-21 30.76 42,200
1981 1981-03-31 8.66 4,890
1982 1982-01-04 24.35 26,600
1983 1983-04-06 26.34 30,800
1984 1984-05-08 20.61 20,000
1985 1984-11-19 11.51 7,760
1986 1986-02-18 16.10 13,400
1987 1987-02-27 18.84 17,300
1988 1988-01-20 17.69 15,600
1989 1989-03-06 20.67 22,000
1990 1990-02-04 19.52 18,300
1991 1990-12-23 38.70 74,300
1992 1991-12-03 29.03 38,000
1993 1993-03-24 21.77 23,100
1994 1994-02-11 31.57 44,500
1995 1995-03-08 15.61 13,300
1996 1995-10-06 17.64 16,300
1997 1996-12-01 23.07 25,600
1998 1998-01-08 26.96 33,100
1999 1999-01-23 23.04 25,500
2000 2000-04-04 20.07 20,200
2001 2001-02-17 22.21 23,900
2002 2002-01-24 32.56 47,300
2003 2003-05-07 31.17 43,200
2004 2004-02-06 26.55 32,800
2005 2004-12-10 22.56 24,600
2006 2006-01-23 16.77 15,000
2007 2007-03-02 11.73 8,470
2008 2008-04-05 13.42 10,600
2009 2009-05-04 25.17 29,900
2010 2010-01-25 22.05 23,600
2011 2011-04-28 21.73 23,000
2012 2012-09-18 17.07 16,000
2013 2013-01-16 19.41 19,900
2014 2013-12-22 13.42 10,600
2015 2015-01-04 14.50 12,400
2016 2015-12-26 22.60 25,700
2017 2017-04-23 19.09 19,300
2018 2018-03-01 27.54 35,400
2019 2019-02-24 32.89 49,500
2020 2020-02-06 27.93 36,300